sensor_id;sensor_type;location;lat;lon;timestamp;pressure;altitude;pressure_sealevel;temperature;humidity
51526;BME280;37611;51.794;21.590;2023-08-30T00:01:21;98755.77;;;18.66;100.00
51526;BME280;37611;51.794;21.590;2023-08-30T00:05:23;98771.27;;;18.62;100.00
51526;BME280;37611;51.794;21.590;2023-08-30T00:09:25;98779.53;;;18.66;100.00
51526;BME280;37611;51.794;21.590;2023-08-30T00:13:29;98791.23;;;18.68;100.00
51526;BME280;37611;51.794;21.590;2023-08-30T00:17:32;98802.33;;;18.68;100.00
51526;BME280;37611;51.794;21.590;2023-08-30T00:21:34;98807.80;;;18.69;100.00
51526;BME280;37611;51.794;21.590;2023-08-30T00:25:35;98830.74;;;18.68;100.00
51526;BME280;37611;51.794;21.590;2023-08-30T00:29:37;98853.91;;;18.64;100.00
51526;BME280;37611;51.794;21.590;2023-08-30T00:33:39;98860.42;;;18.60;100.00
51526;BME280;37611;51.794;21.590;2023-08-30T00:37:41;98867.89;;;18.56;100.00
51526;BME280;37611;51.794;21.590;2023-08-30T00:41:43;98875.20;;;18.55;100.00
51526;BME280;37611;51.794;21.590;2023-08-30T00:45:44;98874.36;;;18.55;100.00
51526;BME280;37611;51.794;21.590;2023-08-30T00:49:47;98865.30;;;18.54;100.00
51526;BME280;37611;51.794;21.590;2023-08-30T00:53:49;98870.88;;;18.54;100.00
51526;BME280;37611;51.794;21.590;2023-08-30T00:57:50;98869.31;;;18.53;100.00
51526;BME280;37611;51.794;21.590;2023-08-30T01:01:52;98854.04;;;18.53;100.00
51526;BME280;37611;51.794;21.590;2023-08-30T01:05:54;98848.05;;;18.51;100.00
51526;BME280;37611;51.794;21.590;2023-08-30T01:09:57;98855.38;;;18.49;100.00
51526;BME280;37611;51.794;21.590;2023-08-30T01:14:09;98857.05;;;18.45;100.00
51526;BME280;37611;51.794;21.590;2023-08-30T01:18:18;98849.58;;;18.46;100.00
51526;BME280;37611;51.794;21.590;2023-08-30T01:30:42;98813.70;;;18.37;100.00
51526;BME280;37611;51.794;21.590;2023-08-30T01:34:47;98813.48;;;18.35;100.00
51526;BME280;37611;51.794;21.590;2023-08-30T01:38:50;98819.60;;;18.32;100.00
51526;BME280;37611;51.794;21.590;2023-08-30T01:42:53;98824.89;;;18.29;100.00
51526;BME280;37611;51.794;21.590;2023-08-30T01:46:56;98819.75;;;18.27;100.00
51526;BME280;37611;51.794;21.590;2023-08-30T01:50:59;98814.23;;;18.30;100.00
51526;BME280;37611;51.794;21.590;2023-08-30T01:55:02;98807.10;;;18.32;100.00
51526;BME280;37611;51.794;21.590;2023-08-30T01:59:04;98803.64;;;18.32;100.00
51526;BME280;37611;51.794;21.590;2023-08-30T02:03:08;98801.45;;;18.29;100.00
51526;BME280;37611;51.794;21.590;2023-08-30T02:07:22;98801.84;;;18.25;100.00
51526;BME280;37611;51.794;21.590;2023-08-30T02:11:27;98801.37;;;18.24;100.00
51526;BME280;37611;51.794;21.590;2023-08-30T02:15:30;98801.77;;;18.20;100.00
51526;BME280;37611;51.794;21.590;2023-08-30T02:19:33;98799.38;;;18.18;100.00
51526;BME280;37611;51.794;21.590;2023-08-30T02:23:35;98801.06;;;18.19;100.00
51526;BME280;37611;51.794;21.590;2023-08-30T02:27:37;98799.36;;;18.17;100.00
51526;BME280;37611;51.794;21.590;2023-08-30T02:31:39;98790.57;;;18.17;100.00
51526;BME280;37611;51.794;21.590;2023-08-30T02:35:40;98788.59;;;18.20;100.00
51526;BME280;37611;51.794;21.590;2023-08-30T02:39:42;98786.90;;;18.22;100.00
51526;BME280;37611;51.794;21.590;2023-08-30T02:43:44;98780.40;;;18.25;100.00
51526;BME280;37611;51.794;21.590;2023-08-30T02:47:46;98774.66;;;18.25;100.00
51526;BME280;37611;51.794;21.590;2023-08-30T02:51:47;98763.64;;;18.26;100.00
51526;BME280;37611;51.794;21.590;2023-08-30T02:55:49;98758.40;;;18.28;100.00
51526;BME280;37611;51.794;21.590;2023-08-30T02:59:51;98757.23;;;18.30;100.00
51526;BME280;37611;51.794;21.590;2023-08-30T03:03:53;98762.56;;;18.31;100.00
51526;BME280;37611;51.794;21.590;2023-08-30T03:07:55;98766.60;;;18.25;100.00
51526;BME280;37611;51.794;21.590;2023-08-30T03:11:56;98762.52;;;18.24;100.00
51526;BME280;37611;51.794;21.590;2023-08-30T03:15:58;98760.40;;;18.24;100.00
51526;BME280;37611;51.794;21.590;2023-08-30T03:20:01;98761.31;;;18.25;100.00
51526;BME280;37611;51.794;21.590;2023-08-30T03:24:05;98760.34;;;18.24;100.00
51526;BME280;37611;51.794;21.590;2023-08-30T03:28:07;98752.11;;;18.27;100.00
51526;BME280;37611;51.794;21.590;2023-08-30T03:32:09;98745.20;;;18.32;100.00
51526;BME280;37611;51.794;21.590;2023-08-30T03:36:11;98741.89;;;18.36;100.00
51526;BME280;37611;51.794;21.590;2023-08-30T03:40:14;98741.11;;;18.40;100.00
51526;BME280;37611;51.794;21.590;2023-08-30T03:44:15;98742.70;;;18.41;100.00
51526;BME280;37611;51.794;21.590;2023-08-30T03:48:17;98739.29;;;18.44;100.00
51526;BME280;37611;51.794;21.590;2023-08-30T03:52:19;98740.80;;;18.48;100.00
51526;BME280;37611;51.794;21.590;2023-08-30T03:56:21;98736.98;;;18.48;100.00
51526;BME280;37611;51.794;21.590;2023-08-30T04:00:23;98749.69;;;18.48;100.00
51526;BME280;37611;51.794;21.590;2023-08-30T04:04:24;98747.03;;;18.48;100.00
51526;BME280;37611;51.794;21.590;2023-08-30T04:08:26;98745.07;;;18.50;100.00
51526;BME280;37611;51.794;21.590;2023-08-30T04:12:28;98759.50;;;18.46;100.00
51526;BME280;37611;51.794;21.590;2023-08-30T04:16:30;98770.81;;;18.44;100.00
51526;BME280;37611;51.794;21.590;2023-08-30T04:20:33;98765.13;;;18.44;100.00
51526;BME280;37611;51.794;21.590;2023-08-30T04:24:35;98754.98;;;18.47;100.00
51526;BME280;37611;51.794;21.590;2023-08-30T04:28:36;98759.86;;;18.51;100.00
51526;BME280;37611;51.794;21.590;2023-08-30T04:32:38;98766.73;;;18.53;100.00
51526;BME280;37611;51.794;21.590;2023-08-30T04:36:40;98781.36;;;18.54;100.00
51526;BME280;37611;51.794;21.590;2023-08-30T04:40:42;98801.09;;;18.54;100.00
51526;BME280;37611;51.794;21.590;2023-08-30T04:44:43;98800.59;;;18.50;100.00
51526;BME280;37611;51.794;21.590;2023-08-30T04:48:46;98796.14;;;18.51;100.00
51526;BME280;37611;51.794;21.590;2023-08-30T04:52:47;98787.95;;;18.51;100.00
51526;BME280;37611;51.794;21.590;2023-08-30T04:56:49;98788.52;;;18.51;100.00
51526;BME280;37611;51.794;21.590;2023-08-30T05:00:51;98805.23;;;18.46;100.00
51526;BME280;37611;51.794;21.590;2023-08-30T05:04:53;98820.17;;;18.41;100.00
51526;BME280;37611;51.794;21.590;2023-08-30T05:08:54;98823.91;;;18.38;100.00
51526;BME280;37611;51.794;21.590;2023-08-30T05:12:56;98827.14;;;18.35;100.00
51526;BME280;37611;51.794;21.590;2023-08-30T05:16:58;98830.94;;;18.31;100.00
51526;BME280;37611;51.794;21.590;2023-08-30T05:21:00;98827.66;;;18.32;100.00
51526;BME280;37611;51.794;21.590;2023-08-30T05:25:05;98815.59;;;18.36;100.00
51526;BME280;37611;51.794;21.590;2023-08-30T05:29:07;98813.19;;;18.43;100.00
51526;BME280;37611;51.794;21.590;2023-08-30T05:33:09;98814.95;;;18.50;100.00
51526;BME280;37611;51.794;21.590;2023-08-30T05:37:10;98805.94;;;18.56;100.00
51526;BME280;37611;51.794;21.590;2023-08-30T05:41:12;98798.50;;;18.65;100.00
51526;BME280;37611;51.794;21.590;2023-08-30T05:45:14;98794.95;;;18.70;100.00
51526;BME280;37611;51.794;21.590;2023-08-30T05:49:16;98789.84;;;18.74;100.00
51526;BME280;37611;51.794;21.590;2023-08-30T05:53:17;98791.80;;;18.79;100.00
51526;BME280;37611;51.794;21.590;2023-08-30T05:57:19;98796.73;;;18.78;100.00
51526;BME280;37611;51.794;21.590;2023-08-30T06:01:24;98805.00;;;18.79;100.00
51526;BME280;37611;51.794;21.590;2023-08-30T06:05:26;98809.73;;;18.82;100.00
51526;BME280;37611;51.794;21.590;2023-08-30T06:09:28;98815.33;;;18.87;100.00
51526;BME280;37611;51.794;21.590;2023-08-30T06:13:30;98816.66;;;18.93;100.00
51526;BME280;37611;51.794;21.590;2023-08-30T06:17:32;98824.15;;;18.97;100.00
51526;BME280;37611;51.794;21.590;2023-08-30T06:21:33;98821.52;;;19.00;100.00
51526;BME280;37611;51.794;21.590;2023-08-30T06:25:35;98825.20;;;19.01;100.00
51526;BME280;37611;51.794;21.590;2023-08-30T06:29:37;98822.73;;;19.00;100.00
51526;BME280;37611;51.794;21.590;2023-08-30T06:33:39;98817.75;;;19.01;100.00
51526;BME280;37611;51.794;21.590;2023-08-30T06:37:40;98818.05;;;19.03;100.00
51526;BME280;37611;51.794;21.590;2023-08-30T06:41:42;98819.26;;;19.05;100.00
51526;BME280;37611;51.794;21.590;2023-08-30T06:45:44;98821.60;;;19.07;100.00
51526;BME280;37611;51.794;21.590;2023-08-30T06:49:46;98821.98;;;19.07;100.00
51526;BME280;37611;51.794;21.590;2023-08-30T06:53:47;98829.41;;;19.06;100.00
51526;BME280;37611;51.794;21.590;2023-08-30T06:57:49;98833.38;;;19.06;100.00
51526;BME280;37611;51.794;21.590;2023-08-30T07:01:51;98833.32;;;19.05;100.00
51526;BME280;37611;51.794;21.590;2023-08-30T07:05:53;98825.52;;;19.04;100.00
51526;BME280;37611;51.794;21.590;2023-08-30T07:09:55;98827.73;;;19.03;100.00
51526;BME280;37611;51.794;21.590;2023-08-30T07:13:57;98824.67;;;19.07;100.00
51526;BME280;37611;51.794;21.590;2023-08-30T07:17:59;98821.13;;;19.10;100.00
51526;BME280;37611;51.794;21.590;2023-08-30T07:22:00;98814.57;;;19.13;100.00
51526;BME280;37611;51.794;21.590;2023-08-30T07:26:02;98819.70;;;19.14;100.00
51526;BME280;37611;51.794;21.590;2023-08-30T07:30:05;98816.34;;;19.19;100.00
51526;BME280;37611;51.794;21.590;2023-08-30T07:34:07;98820.60;;;19.24;100.00
51526;BME280;37611;51.794;21.590;2023-08-30T07:38:09;98823.06;;;19.31;100.00
51526;BME280;37611;51.794;21.590;2023-08-30T07:42:11;98824.43;;;19.35;100.00
51526;BME280;37611;51.794;21.590;2023-08-30T07:46:13;98821.21;;;19.38;100.00
51526;BME280;37611;51.794;21.590;2023-08-30T07:50:14;98823.71;;;19.38;100.00
51526;BME280;37611;51.794;21.590;2023-08-30T07:54:16;98812.16;;;19.40;100.00
51526;BME280;37611;51.794;21.590;2023-08-30T07:58:18;98802.85;;;19.44;100.00
51526;BME280;37611;51.794;21.590;2023-08-30T08:02:20;98799.70;;;19.49;100.00
51526;BME280;37611;51.794;21.590;2023-08-30T08:06:22;98802.80;;;19.56;100.00
51526;BME280;37611;51.794;21.590;2023-08-30T08:10:24;98798.41;;;19.61;100.00
51526;BME280;37611;51.794;21.590;2023-08-30T08:14:26;98794.38;;;19.63;100.00
51526;BME280;37611;51.794;21.590;2023-08-30T08:18:27;98794.30;;;19.66;100.00
51526;BME280;37611;51.794;21.590;2023-08-30T08:22:29;98799.50;;;19.67;100.00
51526;BME280;37611;51.794;21.590;2023-08-30T08:26:31;98802.81;;;19.67;100.00
51526;BME280;37611;51.794;21.590;2023-08-30T08:30:33;98803.71;;;19.67;100.00
51526;BME280;37611;51.794;21.590;2023-08-30T08:34:35;98803.30;;;19.63;100.00
51526;BME280;37611;51.794;21.590;2023-08-30T08:38:36;98801.70;;;19.58;100.00
51526;BME280;37611;51.794;21.590;2023-08-30T08:42:41;98803.82;;;19.57;100.00
51526;BME280;37611;51.794;21.590;2023-08-30T08:46:43;98803.52;;;19.49;100.00
51526;BME280;37611;51.794;21.590;2023-08-30T08:50:46;98801.45;;;19.40;100.00
51526;BME280;37611;51.794;21.590;2023-08-30T08:54:48;98800.70;;;19.37;100.00
51526;BME280;37611;51.794;21.590;2023-08-30T08:58:50;98802.04;;;19.38;100.00
51526;BME280;37611;51.794;21.590;2023-08-30T09:02:53;98801.65;;;19.39;100.00
51526;BME280;37611;51.794;21.590;2023-08-30T09:06:55;98802.41;;;19.40;100.00
51526;BME280;37611;51.794;21.590;2023-08-30T09:10:57;98799.77;;;19.41;100.00
51526;BME280;37611;51.794;21.590;2023-08-30T09:14:59;98799.11;;;19.46;100.00
51526;BME280;37611;51.794;21.590;2023-08-30T09:19:02;98796.61;;;19.49;100.00
51526;BME280;37611;51.794;21.590;2023-08-30T09:23:04;98798.24;;;19.51;100.00
51526;BME280;37611;51.794;21.590;2023-08-30T09:27:06;98800.51;;;19.55;100.00
51526;BME280;37611;51.794;21.590;2023-08-30T09:31:16;98792.98;;;19.63;100.00
51526;BME280;37611;51.794;21.590;2023-08-30T09:35:19;98797.44;;;19.68;100.00
51526;BME280;37611;51.794;21.590;2023-08-30T09:39:21;98799.42;;;19.69;100.00
51526;BME280;37611;51.794;21.590;2023-08-30T09:43:23;98797.48;;;19.70;100.00
51526;BME280;37611;51.794;21.590;2023-08-30T09:47:25;98791.53;;;19.69;100.00
51526;BME280;37611;51.794;21.590;2023-08-30T09:51:28;98790.38;;;19.66;100.00
51526;BME280;37611;51.794;21.590;2023-08-30T09:55:31;98791.33;;;19.61;100.00
51526;BME280;37611;51.794;21.590;2023-08-30T09:59:33;98790.65;;;19.62;100.00
51526;BME280;37611;51.794;21.590;2023-08-30T10:03:35;98793.94;;;19.69;100.00
51526;BME280;37611;51.794;21.590;2023-08-30T10:07:38;98795.63;;;19.77;100.00
51526;BME280;37611;51.794;21.590;2023-08-30T10:11:41;98802.37;;;19.92;100.00
51526;BME280;37611;51.794;21.590;2023-08-30T10:15:45;98811.89;;;20.07;100.00
51526;BME280;37611;51.794;21.590;2023-08-30T10:19:50;98806.02;;;20.22;100.00
51526;BME280;37611;51.794;21.590;2023-08-30T10:23:53;98806.08;;;20.47;100.00
51526;BME280;37611;51.794;21.590;2023-08-30T10:27:57;98810.22;;;20.64;100.00
51526;BME280;37611;51.794;21.590;2023-08-30T10:32:04;98813.77;;;20.69;100.00
51526;BME280;37611;51.794;21.590;2023-08-30T10:36:06;98822.38;;;20.59;100.00
51526;BME280;37611;51.794;21.590;2023-08-30T10:40:08;98826.30;;;20.44;100.00
51526;BME280;37611;51.794;21.590;2023-08-30T10:44:13;98833.20;;;20.34;100.00
51526;BME280;37611;51.794;21.590;2023-08-30T10:48:16;98840.17;;;20.20;100.00
51526;BME280;37611;51.794;21.590;2023-08-30T10:52:18;98838.66;;;20.09;100.00
51526;BME280;37611;51.794;21.590;2023-08-30T10:56:29;98834.18;;;20.01;100.00
51526;BME280;37611;51.794;21.590;2023-08-30T11:00:32;98834.98;;;19.95;100.00
51526;BME280;37611;51.794;21.590;2023-08-30T11:04:39;98836.19;;;19.93;100.00
51526;BME280;37611;51.794;21.590;2023-08-30T11:08:41;98843.11;;;19.93;100.00
51526;BME280;37611;51.794;21.590;2023-08-30T11:12:44;98846.73;;;19.91;100.00
51526;BME280;37611;51.794;21.590;2023-08-30T11:16:46;98844.30;;;19.88;100.00
51526;BME280;37611;51.794;21.590;2023-08-30T11:20:53;98844.77;;;19.78;100.00
51526;BME280;37611;51.794;21.590;2023-08-30T11:24:59;98845.13;;;19.63;100.00
51526;BME280;37611;51.794;21.590;2023-08-30T11:29:08;98852.54;;;19.55;100.00
51526;BME280;37611;51.794;21.590;2023-08-30T11:33:10;98857.14;;;19.47;100.00
51526;BME280;37611;51.794;21.590;2023-08-30T11:37:12;98854.02;;;19.44;100.00
51526;BME280;37611;51.794;21.590;2023-08-30T11:41:14;98851.72;;;19.42;100.00
51526;BME280;37611;51.794;21.590;2023-08-30T11:45:16;98853.77;;;19.41;100.00
51526;BME280;37611;51.794;21.590;2023-08-30T11:49:18;98854.08;;;19.38;100.00
51526;BME280;37611;51.794;21.590;2023-08-30T11:53:20;98856.02;;;19.36;100.00
51526;BME280;37611;51.794;21.590;2023-08-30T11:57:23;98858.33;;;19.32;100.00
51526;BME280;37611;51.794;21.590;2023-08-30T12:01:24;98856.10;;;19.26;100.00
51526;BME280;37611;51.794;21.590;2023-08-30T12:05:26;98854.35;;;19.24;100.00
51526;BME280;37611;51.794;21.590;2023-08-30T12:09:32;98864.38;;;19.19;100.00
51526;BME280;37611;51.794;21.590;2023-08-30T12:13:34;98865.44;;;19.15;100.00
51526;BME280;37611;51.794;21.590;2023-08-30T12:17:36;98867.91;;;19.14;100.00
51526;BME280;37611;51.794;21.590;2023-08-30T12:21:42;98868.87;;;19.13;100.00
51526;BME280;37611;51.794;21.590;2023-08-30T12:25:44;98864.77;;;19.18;100.00
51526;BME280;37611;51.794;21.590;2023-08-30T12:29:46;98860.33;;;19.24;100.00
51526;BME280;37611;51.794;21.590;2023-08-30T12:33:48;98864.56;;;19.32;100.00
51526;BME280;37611;51.794;21.590;2023-08-30T12:37:50;98863.21;;;19.37;100.00
51526;BME280;37611;51.794;21.590;2023-08-30T12:41:51;98866.95;;;19.40;100.00
51526;BME280;37611;51.794;21.590;2023-08-30T12:45:53;98862.01;;;19.46;100.00
51526;BME280;37611;51.794;21.590;2023-08-30T12:49:55;98859.92;;;19.53;100.00
51526;BME280;37611;51.794;21.590;2023-08-30T12:53:56;98853.29;;;19.58;100.00
51526;BME280;37611;51.794;21.590;2023-08-30T12:57:58;98856.16;;;19.65;100.00
51526;BME280;37611;51.794;21.590;2023-08-30T13:02:00;98853.38;;;19.71;100.00
51526;BME280;37611;51.794;21.590;2023-08-30T13:06:02;98850.92;;;19.79;100.00
51526;BME280;37611;51.794;21.590;2023-08-30T13:10:06;98849.73;;;19.85;100.00
51526;BME280;37611;51.794;21.590;2023-08-30T13:14:08;98842.80;;;19.87;100.00
51526;BME280;37611;51.794;21.590;2023-08-30T13:18:10;98841.48;;;19.85;100.00
51526;BME280;37611;51.794;21.590;2023-08-30T13:22:11;98844.47;;;19.79;100.00
51526;BME280;37611;51.794;21.590;2023-08-30T13:26:13;98842.80;;;19.78;100.00
51526;BME280;37611;51.794;21.590;2023-08-30T13:30:15;98835.27;;;19.80;100.00
51526;BME280;37611;51.794;21.590;2023-08-30T13:34:17;98827.23;;;19.78;100.00
51526;BME280;37611;51.794;21.590;2023-08-30T13:38:19;98835.89;;;19.73;100.00
51526;BME280;37611;51.794;21.590;2023-08-30T13:42:21;98846.29;;;19.71;100.00
51526;BME280;37611;51.794;21.590;2023-08-30T13:46:23;98849.44;;;19.65;100.00
51526;BME280;37611;51.794;21.590;2023-08-30T13:50:25;98854.41;;;19.63;100.00
51526;BME280;37611;51.794;21.590;2023-08-30T13:54:31;98859.18;;;19.65;100.00
51526;BME280;37611;51.794;21.590;2023-08-30T13:58:33;98852.27;;;19.74;100.00
51526;BME280;37611;51.794;21.590;2023-08-30T14:02:35;98851.48;;;19.75;100.00
51526;BME280;37611;51.794;21.590;2023-08-30T14:06:37;98852.27;;;19.63;100.00
51526;BME280;37611;51.794;21.590;2023-08-30T14:10:39;98853.94;;;19.53;100.00
51526;BME280;37611;51.794;21.590;2023-08-30T14:14:40;98862.45;;;19.50;100.00
51526;BME280;37611;51.794;21.590;2023-08-30T14:18:43;98871.09;;;19.47;100.00
51526;BME280;37611;51.794;21.590;2023-08-30T14:22:45;98875.10;;;19.48;100.00
51526;BME280;37611;51.794;21.590;2023-08-30T14:26:47;98875.92;;;19.50;100.00
51526;BME280;37611;51.794;21.590;2023-08-30T14:30:48;98886.79;;;19.46;100.00
51526;BME280;37611;51.794;21.590;2023-08-30T14:34:50;98886.67;;;19.38;100.00
51526;BME280;37611;51.794;21.590;2023-08-30T14:38:52;98888.28;;;19.27;100.00
51526;BME280;37611;51.794;21.590;2023-08-30T14:42:53;98895.73;;;19.27;100.00
51526;BME280;37611;51.794;21.590;2023-08-30T14:46:55;98904.62;;;19.36;100.00
51526;BME280;37611;51.794;21.590;2023-08-30T14:50:58;98911.73;;;19.37;100.00
51526;BME280;37611;51.794;21.590;2023-08-30T14:55:00;98911.57;;;19.39;100.00
51526;BME280;37611;51.794;21.590;2023-08-30T14:59:02;98913.19;;;19.40;100.00
51526;BME280;37611;51.794;21.590;2023-08-30T15:03:03;98911.08;;;19.35;100.00
51526;BME280;37611;51.794;21.590;2023-08-30T15:07:06;98907.05;;;19.31;100.00
51526;BME280;37611;51.794;21.590;2023-08-30T15:11:07;98903.73;;;19.27;100.00
51526;BME280;37611;51.794;21.590;2023-08-30T15:15:10;98900.46;;;19.19;100.00
51526;BME280;37611;51.794;21.590;2023-08-30T15:19:12;98901.99;;;19.13;100.00
51526;BME280;37611;51.794;21.590;2023-08-30T15:23:14;98901.02;;;19.09;100.00
51526;BME280;37611;51.794;21.590;2023-08-30T15:27:18;98895.32;;;19.04;100.00
51526;BME280;37611;51.794;21.590;2023-08-30T15:31:20;98892.22;;;19.02;100.00
51526;BME280;37611;51.794;21.590;2023-08-30T15:35:22;98890.19;;;19.03;100.00
51526;BME280;37611;51.794;21.590;2023-08-30T15:39:24;98890.64;;;19.05;100.00
51526;BME280;37611;51.794;21.590;2023-08-30T15:43:26;98894.39;;;19.04;100.00
51526;BME280;37611;51.794;21.590;2023-08-30T15:47:27;98900.45;;;19.00;100.00
51526;BME280;37611;51.794;21.590;2023-08-30T15:51:29;98904.39;;;18.98;100.00
51526;BME280;37611;51.794;21.590;2023-08-30T15:55:31;98911.39;;;18.95;100.00
51526;BME280;37611;51.794;21.590;2023-08-30T15:59:34;98921.80;;;18.86;100.00
51526;BME280;37611;51.794;21.590;2023-08-30T16:03:35;98929.50;;;18.78;100.00
51526;BME280;37611;51.794;21.590;2023-08-30T16:07:38;98923.48;;;18.73;100.00
51526;BME280;37611;51.794;21.590;2023-08-30T16:11:40;98921.66;;;18.69;100.00
51526;BME280;37611;51.794;21.590;2023-08-30T16:15:42;98921.00;;;18.64;100.00
51526;BME280;37611;51.794;21.590;2023-08-30T16:19:43;98916.41;;;18.59;100.00
51526;BME280;37611;51.794;21.590;2023-08-30T16:23:45;98908.73;;;18.53;100.00
51526;BME280;37611;51.794;21.590;2023-08-30T16:27:48;98904.91;;;18.47;100.00
51526;BME280;37611;51.794;21.590;2023-08-30T16:31:50;98909.34;;;18.41;100.00
51526;BME280;37611;51.794;21.590;2023-08-30T16:35:53;98909.56;;;18.37;100.00
51526;BME280;37611;51.794;21.590;2023-08-30T16:39:56;98899.95;;;18.35;100.00
51526;BME280;37611;51.794;21.590;2023-08-30T16:43:58;98900.14;;;18.34;100.00
51526;BME280;37611;51.794;21.590;2023-08-30T16:47:59;98901.88;;;18.33;100.00
51526;BME280;37611;51.794;21.590;2023-08-30T16:52:01;98897.73;;;18.31;100.00
51526;BME280;37611;51.794;21.590;2023-08-30T16:56:03;98892.89;;;18.27;100.00
51526;BME280;37611;51.794;21.590;2023-08-30T17:00:06;98890.91;;;18.24;100.00
51526;BME280;37611;51.794;21.590;2023-08-30T17:04:08;98891.70;;;18.24;100.00
51526;BME280;37611;51.794;21.590;2023-08-30T17:08:11;98883.94;;;18.24;100.00
51526;BME280;37611;51.794;21.590;2023-08-30T17:12:13;98886.08;;;18.25;100.00
51526;BME280;37611;51.794;21.590;2023-08-30T17:16:15;98883.06;;;18.23;100.00
51526;BME280;37611;51.794;21.590;2023-08-30T17:20:17;98880.00;;;18.22;100.00
51526;BME280;37611;51.794;21.590;2023-08-30T17:24:19;98884.43;;;18.20;100.00
51526;BME280;37611;51.794;21.590;2023-08-30T17:28:21;98892.45;;;18.18;100.00
51526;BME280;37611;51.794;21.590;2023-08-30T17:32:24;98895.58;;;18.15;100.00
51526;BME280;37611;51.794;21.590;2023-08-30T17:36:26;98888.95;;;18.15;100.00
51526;BME280;37611;51.794;21.590;2023-08-30T17:40:31;98884.80;;;18.11;100.00
51526;BME280;37611;51.794;21.590;2023-08-30T17:44:35;98885.41;;;18.05;100.00
51526;BME280;37611;51.794;21.590;2023-08-30T17:48:37;98883.19;;;18.04;100.00
51526;BME280;37611;51.794;21.590;2023-08-30T17:52:40;98883.59;;;18.01;100.00
51526;BME280;37611;51.794;21.590;2023-08-30T17:56:42;98889.79;;;18.00;100.00
51526;BME280;37611;51.794;21.590;2023-08-30T18:00:44;98892.62;;;17.96;100.00
51526;BME280;37611;51.794;21.590;2023-08-30T18:04:45;98900.94;;;17.92;100.00
51526;BME280;37611;51.794;21.590;2023-08-30T18:08:48;98902.73;;;17.86;100.00
51526;BME280;37611;51.794;21.590;2023-08-30T18:12:51;98897.96;;;17.85;100.00
51526;BME280;37611;51.794;21.590;2023-08-30T18:16:53;98895.38;;;17.86;100.00
51526;BME280;37611;51.794;21.590;2023-08-30T18:20:54;98893.34;;;17.85;100.00
51526;BME280;37611;51.794;21.590;2023-08-30T18:24:56;98888.98;;;17.81;100.00
51526;BME280;37611;51.794;21.590;2023-08-30T18:28:58;98888.83;;;17.79;100.00
51526;BME280;37611;51.794;21.590;2023-08-30T18:33:00;98893.95;;;17.78;100.00
51526;BME280;37611;51.794;21.590;2023-08-30T18:37:03;98895.36;;;17.75;100.00
51526;BME280;37611;51.794;21.590;2023-08-30T18:41:05;98905.61;;;17.72;100.00
51526;BME280;37611;51.794;21.590;2023-08-30T18:45:08;98912.11;;;17.71;100.00
51526;BME280;37611;51.794;21.590;2023-08-30T18:49:10;98916.55;;;17.69;100.00
51526;BME280;37611;51.794;21.590;2023-08-30T18:53:12;98922.34;;;17.67;100.00
51526;BME280;37611;51.794;21.590;2023-08-30T18:57:17;98928.92;;;17.66;100.00
51526;BME280;37611;51.794;21.590;2023-08-30T19:01:19;98936.13;;;17.65;100.00
51526;BME280;37611;51.794;21.590;2023-08-30T19:05:21;98942.01;;;17.62;100.00
51526;BME280;37611;51.794;21.590;2023-08-30T19:09:24;98945.30;;;17.59;100.00
51526;BME280;37611;51.794;21.590;2023-08-30T19:13:26;98954.88;;;17.55;100.00
51526;BME280;37611;51.794;21.590;2023-08-30T19:17:28;98959.98;;;17.52;100.00
51526;BME280;37611;51.794;21.590;2023-08-30T19:21:31;98961.86;;;17.51;100.00
51526;BME280;37611;51.794;21.590;2023-08-30T19:25:33;98960.73;;;17.52;100.00
51526;BME280;37611;51.794;21.590;2023-08-30T19:29:35;98961.42;;;17.54;100.00
51526;BME280;37611;51.794;21.590;2023-08-30T19:33:37;98966.03;;;17.55;100.00
51526;BME280;37611;51.794;21.590;2023-08-30T19:37:39;98970.56;;;17.52;100.00
51526;BME280;37611;51.794;21.590;2023-08-30T19:41:40;98974.91;;;17.50;100.00
51526;BME280;37611;51.794;21.590;2023-08-30T19:45:43;98976.30;;;17.47;100.00
51526;BME280;37611;51.794;21.590;2023-08-30T19:49:46;98973.02;;;17.44;100.00
51526;BME280;37611;51.794;21.590;2023-08-30T19:53:48;98984.04;;;17.41;100.00
51526;BME280;37611;51.794;21.590;2023-08-30T19:57:52;98996.31;;;17.36;100.00
51526;BME280;37611;51.794;21.590;2023-08-30T20:01:55;98990.16;;;17.31;100.00
51526;BME280;37611;51.794;21.590;2023-08-30T20:05:57;98984.42;;;17.32;100.00
51526;BME280;37611;51.794;21.590;2023-08-30T20:09:59;98990.77;;;17.35;100.00
51526;BME280;37611;51.794;21.590;2023-08-30T20:14:01;99002.23;;;17.31;100.00
51526;BME280;37611;51.794;21.590;2023-08-30T20:18:04;99008.30;;;17.30;100.00
51526;BME280;37611;51.794;21.590;2023-08-30T20:22:05;99012.20;;;17.27;100.00
51526;BME280;37611;51.794;21.590;2023-08-30T20:26:09;99019.38;;;17.21;100.00
51526;BME280;37611;51.794;21.590;2023-08-30T20:30:12;99027.85;;;17.13;100.00
51526;BME280;37611;51.794;21.590;2023-08-30T20:34:15;99022.80;;;17.08;100.00
51526;BME280;37611;51.794;21.590;2023-08-30T20:38:19;99016.52;;;17.03;100.00
51526;BME280;37611;51.794;21.590;2023-08-30T20:42:20;99016.71;;;17.00;100.00
51526;BME280;37611;51.794;21.590;2023-08-30T20:46:22;99022.04;;;16.96;100.00
51526;BME280;37611;51.794;21.590;2023-08-30T20:50:25;99027.73;;;16.93;100.00
51526;BME280;37611;51.794;21.590;2023-08-30T20:54:26;99027.63;;;16.91;100.00
51526;BME280;37611;51.794;21.590;2023-08-30T20:58:32;99021.55;;;16.92;100.00